Time;durP1;ratioP1;P1;durP2;ratioP2;P2;SDS_P1;SDS_P2;PMS_P1;PMS_P2;Temp;Humidity;BMP_temperature;BMP_pressure;BME280_temperature;BME280_humidity;BME280_pressure;Samples;Min_cycle;Max_cycle;Signal;HPM_P1;HPM_P2
2021/09/07 04:00:28;;;;;;;19.00;17.30;;;15.20;99.90;;;;;;5975050;23;20397;-66
2021/09/07 04:02:55;;;;;;;20.07;18.20;;;15.20;99.90;;;;;;4997566;28;20804;-67
2021/09/07 04:05:21;;;;;;;18.40;16.60;;;15.20;99.90;;;;;;4997719;28;20456;-67
2021/09/07 04:07:49;;;;;;;22.03;19.87;;;15.20;99.90;;;;;;4997577;28;20458;-67
2021/09/07 04:10:15;;;;;;;21.67;19.37;;;15.10;99.90;;;;;;4997237;28;20875;-66
2021/09/07 04:12:42;;;;;;;22.70;20.60;;;15.10;99.90;;;;;;4997322;28;20453;-66
2021/09/07 04:15:10;;;;;;;21.80;19.60;;;15.10;99.90;;;;;;4997567;28;20833;-67
2021/09/07 04:17:38;;;;;;;23.17;20.77;;;15.10;99.90;;;;;;4997397;28;20456;-67
2021/09/07 04:20:06;;;;;;;23.67;21.50;;;15.00;99.90;;;;;;4997307;28;20474;-67
2021/09/07 04:22:32;;;;;;;23.57;21.30;;;14.90;99.90;;;;;;4997226;28;20505;-67
2021/09/07 04:24:59;;;;;;;22.83;20.63;;;14.90;99.90;;;;;;4997416;28;20460;-66
2021/09/07 04:27:26;;;;;;;23.50;21.00;;;14.80;99.90;;;;;;4997319;28;20461;-67
2021/09/07 04:29:52;;;;;;;24.73;22.10;;;14.80;99.90;;;;;;4997289;28;20454;-67
2021/09/07 04:32:19;;;;;;;22.70;20.60;;;14.80;99.90;;;;;;4997063;28;20481;-68
2021/09/07 04:34:47;;;;;;;23.40;21.00;;;14.80;99.90;;;;;;4996687;28;20937;-67
2021/09/07 04:37:14;;;;;;;23.37;21.00;;;14.80;99.90;;;;;;4996208;28;20464;-67
2021/09/07 04:39:43;;;;;;;23.80;21.50;;;14.70;99.90;;;;;;4996808;28;20458;-67
2021/09/07 04:42:10;;;;;;;26.13;21.80;;;14.60;99.90;;;;;;4996824;28;20486;-67
2021/09/07 04:44:36;;;;;;;24.03;21.80;;;14.60;99.90;;;;;;4997034;28;20826;-67
2021/09/07 04:47:03;;;;;;;22.57;20.30;;;14.60;99.90;;;;;;4996698;28;20897;-67
2021/09/07 04:49:30;;;;;;;22.50;20.20;;;14.60;99.90;;;;;;4996833;28;20450;-67
2021/09/07 04:51:58;;;;;;;21.73;19.67;;;14.60;99.90;;;;;;4996415;28;20473;-67
2021/09/07 04:54:25;;;;;;;22.10;19.80;;;14.60;99.90;;;;;;4996744;28;20461;-68
2021/09/07 04:56:51;;;;;;;21.73;19.63;;;14.60;99.90;;;;;;4996763;28;20460;-69
2021/09/07 04:59:18;;;;;;;21.77;19.67;;;14.70;99.90;;;;;;4996415;28;20960;-68
2021/09/07 05:01:45;;;;;;;21.17;18.40;;;14.80;99.90;;;;;;4996379;28;20482;-68
2021/09/07 05:04:12;;;;;;;19.77;17.87;;;14.90;99.90;;;;;;4996672;28;20493;-67
2021/09/07 05:06:39;;;;;;;22.17;19.87;;;14.80;99.90;;;;;;4996572;28;20507;-68
2021/09/07 05:09:07;;;;;;;18.70;16.97;;;15.00;99.90;;;;;;4996358;28;20478;-68
2021/09/07 05:11:34;;;;;;;20.20;18.30;;;15.10;99.90;;;;;;4996486;28;20474;-69
2021/09/07 05:14:01;;;;;;;19.70;17.80;;;15.20;99.90;;;;;;4997035;28;20898;-68
2021/09/07 05:16:27;;;;;;;19.93;17.97;;;15.30;99.90;;;;;;4996571;28;20453;-68
2021/09/07 05:18:54;;;;;;;20.70;18.63;;;15.40;99.90;;;;;;4996284;28;20458;-67
2021/09/07 05:21:21;;;;;;;21.27;19.17;;;15.40;99.90;;;;;;4995694;28;20486;-67
2021/09/07 05:23:48;;;;;;;20.60;18.60;;;15.40;99.90;;;;;;4996237;28;20465;-66
2021/09/07 05:26:16;;;;;;;20.83;18.77;;;15.40;99.90;;;;;;4996753;28;20454;-67
2021/09/07 05:28:44;;;;;;;23.93;19.90;;;15.40;99.90;;;;;;4996603;28;20438;-67
2021/09/07 05:31:10;;;;;;;20.07;18.27;;;15.40;99.90;;;;;;4996063;28;20476;-63
2021/09/07 05:33:37;;;;;;;19.63;17.83;;;15.40;99.90;;;;;;4996159;28;20460;-65
2021/09/07 05:36:04;;;;;;;18.90;16.93;;;15.30;99.90;;;;;;4995897;28;20457;-64
2021/09/07 05:38:31;;;;;;;19.27;17.27;;;15.30;99.90;;;;;;4995969;28;20453;-64
2021/09/07 05:40:58;;;;;;;18.97;17.17;;;15.30;99.90;;;;;;4995875;28;20485;-64
2021/09/07 05:43:26;;;;;;;20.40;17.60;;;15.30;99.90;;;;;;4995600;28;20457;-64
2021/09/07 05:45:52;;;;;;;19.37;17.57;;;15.40;99.90;;;;;;4995852;28;20639;-64
2021/09/07 05:48:19;;;;;;;18.20;16.53;;;15.40;99.90;;;;;;4995660;28;20453;-65
2021/09/07 05:50:46;;;;;;;17.40;15.80;;;15.40;99.90;;;;;;4995888;28;20465;-65
2021/09/07 05:53:12;;;;;;;19.90;17.90;;;15.40;99.90;;;;;;4995529;28;20994;-66
2021/09/07 05:55:39;;;;;;;18.30;16.50;;;15.40;99.90;;;;;;4995767;28;20457;-64
2021/09/07 05:58:06;;;;;;;19.23;17.33;;;15.40;99.90;;;;;;4995216;28;20956;-64
2021/09/07 06:00:34;;;;;;;18.10;16.40;;;15.40;99.90;;;;;;4995148;28;20884;-64
2021/09/07 06:03:04;;;;;;;17.60;15.77;;;15.50;99.90;;;;;;4995201;28;20803;-64
2021/09/07 06:05:31;;;;;;;19.40;16.50;;;15.60;99.90;;;;;;4995948;28;20452;-65
2021/09/07 06:07:58;;;;;;;16.20;14.80;;;15.70;99.90;;;;;;4995547;28;20480;-64
2021/09/07 06:10:24;;;;;;;16.63;15.13;;;15.80;99.90;;;;;;4995240;28;20445;-65
2021/09/07 06:12:51;;;;;;;17.50;15.80;;;15.80;99.90;;;;;;4995415;28;20453;-64
2021/09/07 06:15:18;;;;;;;18.20;16.37;;;15.90;99.90;;;;;;4995053;28;20476;-64
2021/09/07 06:17:46;;;;;;;16.90;15.27;;;16.00;99.90;;;;;;4995172;28;20458;-64
2021/09/07 06:20:13;;;;;;;19.00;17.00;;;16.10;99.90;;;;;;4994649;28;20832;-64
2021/09/07 06:22:40;;;;;;;23.40;19.00;;;16.20;99.90;;;;;;4995029;28;20453;-64
2021/09/07 06:25:07;;;;;;;22.43;19.17;;;16.20;99.90;;;;;;4994959;28;20505;-64
2021/09/07 06:27:34;;;;;;;19.73;17.90;;;16.30;99.90;;;;;;4994837;28;20937;-64
2021/09/07 06:30:01;;;;;;;19.70;17.87;;;16.30;99.90;;;;;;4994955;28;20461;-64
2021/09/07 06:32:27;;;;;;;20.13;18.03;;;16.40;99.90;;;;;;4994340;28;20481;-65
2021/09/07 06:34:55;;;;;;;20.10;18.10;;;16.40;99.90;;;;;;4995035;28;20465;-64
2021/09/07 06:37:22;;;;;;;19.73;17.37;;;16.40;99.90;;;;;;4995762;28;20457;-64
2021/09/07 06:39:49;;;;;;;19.63;17.77;;;16.40;99.90;;;;;;4996724;28;20816;-64
2021/09/07 06:42:15;;;;;;;19.20;17.10;;;16.50;99.90;;;;;;4995273;28;20488;-64
2021/09/07 06:44:42;;;;;;;17.87;15.90;;;16.60;99.90;;;;;;4994577;28;20792;-64
2021/09/07 06:47:09;;;;;;;18.67;16.90;;;16.80;99.90;;;;;;4995233;28;20480;-64
2021/09/07 06:49:36;;;;;;;19.23;17.40;;;17.10;99.90;;;;;;4996277;28;20460;-65
2021/09/07 06:52:04;;;;;;;19.00;17.13;;;17.20;99.90;;;;;;4995163;28;20474;-65
2021/09/07 06:54:31;;;;;;;17.10;15.33;;;17.50;99.90;;;;;;4994740;28;20461;-65
2021/09/07 06:56:58;;;;;;;18.40;16.70;;;17.90;99.90;;;;;;4995228;28;20454;-64
2021/09/07 06:59:24;;;;;;;20.33;17.20;;;18.30;99.90;;;;;;4994126;28;20464;-64
2021/09/07 07:01:51;;;;;;;18.53;16.70;;;18.70;99.90;;;;;;4994042;28;20489;-64
2021/09/07 07:04:18;;;;;;;18.63;16.10;;;18.90;99.90;;;;;;4994516;28;20538;-64
2021/09/07 07:06:44;;;;;;;18.17;16.40;;;19.10;99.90;;;;;;4994549;28;20820;-64
2021/09/07 07:09:12;;;;;;;17.87;16.03;;;19.60;99.90;;;;;;4994562;28;20461;-65
2021/09/07 07:11:39;;;;;;;17.63;15.93;;;19.90;99.90;;;;;;4994600;28;20473;-65
2021/09/07 07:14:06;;;;;;;17.30;15.60;;;20.40;99.90;;;;;;4994371;28;20453;-65
2021/09/07 07:16:32;;;;;;;18.57;16.77;;;20.60;99.90;;;;;;4994672;28;20453;-64
2021/09/07 07:18:59;;;;;;;17.60;15.93;;;20.70;99.90;;;;;;4994292;28;20461;-65
2021/09/07 07:21:28;;;;;;;17.07;15.37;;;20.80;99.90;;;;;;4994230;28;20489;-65
2021/09/07 07:23:55;;;;;;;19.83;16.00;;;20.80;99.90;;;;;;4996001;28;20489;-64
2021/09/07 07:26:23;;;;;;;17.50;15.57;;;20.70;99.90;;;;;;4995600;28;20461;-66
2021/09/07 07:28:50;;;;;;;17.03;15.33;;;20.80;99.90;;;;;;4994615;28;20458;-66
2021/09/07 07:31:17;;;;;;;15.77;14.10;;;21.30;99.90;;;;;;4994789;28;20549;-64
2021/09/07 07:33:43;;;;;;;17.83;14.70;;;21.90;99.90;;;;;;4994277;28;20564;-64
2021/09/07 07:36:10;;;;;;;16.73;15.20;;;22.50;99.90;;;;;;4994541;28;20458;-64
2021/09/07 07:38:37;;;;;;;16.77;15.37;;;23.10;99.90;;;;;;4994635;28;20520;-64
2021/09/07 07:41:03;;;;;;;20.53;15.37;;;23.30;99.90;;;;;;4994335;28;20485;-65
2021/09/07 07:43:33;;;;;;;15.87;14.37;;;23.30;99.90;;;;;;4994430;28;20453;-65
2021/09/07 07:46:00;;;;;;;15.27;13.67;;;23.30;99.90;;;;;;4994541;28;20453;-65
2021/09/07 07:48:27;;;;;;;17.00;14.47;;;23.80;99.90;;;;;;4994459;28;20454;-65
2021/09/07 07:50:53;;;;;;;15.00;13.70;;;24.10;99.90;;;;;;4994319;28;20481;-65
2021/09/07 07:53:20;;;;;;;15.43;14.03;;;24.30;99.90;;;;;;4994261;28;20936;-65
2021/09/07 07:55:47;;;;;;;19.40;14.50;;;24.30;99.90;;;;;;4994423;28;20465;-65
2021/09/07 07:58:13;;;;;;;15.13;13.80;;;24.30;99.90;;;;;;4994754;28;20453;-65
2021/09/07 08:00:45;;;;;;;14.03;12.83;;;24.70;99.90;;;;;;4994278;28;20553;-65
2021/09/07 08:03:12;;;;;;;14.20;13.00;;;25.30;99.90;;;;;;4994864;28;20438;-65
2021/09/07 08:05:39;;;;;;;15.43;14.07;;;26.00;99.90;;;;;;4994617;28;20454;-65
2021/09/07 08:08:06;;;;;;;17.90;13.47;;;26.00;99.90;;;;;;4994365;28;20453;-64
2021/09/07 08:10:34;;;;;;;13.97;12.77;;;26.20;99.90;;;;;;4994409;28;20480;-65
2021/09/07 08:13:01;;;;;;;14.20;12.90;;;27.00;99.90;;;;;;4997695;28;20450;-65
2021/09/07 08:15:28;;;;;;;13.53;12.33;;;27.60;98.50;;;;;;4997679;28;20492;-65
2021/09/07 08:17:56;;;;;;;14.10;12.60;;;27.90;97.00;;;;;;4997433;28;20453;-64
2021/09/07 08:20:23;;;;;;;12.87;11.57;;;28.50;95.60;;;;;;4997698;28;20458;-66
2021/09/07 08:22:50;;;;;;;13.60;12.40;;;29.10;94.90;;;;;;4997426;28;20828;-65
2021/09/07 08:25:17;;;;;;;13.83;12.67;;;29.10;92.30;;;;;;4997709;28;20482;-65
2021/09/07 08:27:43;;;;;;;12.53;11.37;;;29.70;91.30;;;;;;4997282;28;20458;-65
2021/09/07 08:30:11;;;;;;;13.70;12.40;;;29.90;89.40;;;;;;4997503;28;20493;-65
2021/09/07 08:32:40;;;;;;;13.37;11.97;;;29.80;85.90;;;;;;5001089;28;20454;-65
2021/09/07 08:35:09;;;;;;;12.93;11.73;;;30.10;86.80;;;;;;5002446;28;20453;-65
2021/09/07 08:37:36;;;;;;;12.30;11.13;;;30.20;84.30;;;;;;4999557;28;20482;-65
2021/09/07 08:40:03;;;;;;;14.60;12.20;;;30.30;82.70;;;;;;4998919;28;20797;-65
2021/09/07 08:42:30;;;;;;;12.00;10.90;;;30.70;82.00;;;;;;4998652;28;20988;-65
2021/09/07 08:44:57;;;;;;;11.37;10.47;;;31.00;78.70;;;;;;4999316;28;20457;-65
2021/09/07 08:47:24;;;;;;;10.90;9.90;;;31.60;76.20;;;;;;4998880;28;20469;-66
2021/09/07 08:49:51;;;;;;;12.33;11.13;;;32.30;75.00;;;;;;4998663;28;20512;-66
2021/09/07 08:52:22;;;;;;;10.87;9.73;;;32.70;71.20;;;;;;4998794;28;20476;-66
2021/09/07 08:54:48;;;;;;;11.50;10.50;;;32.70;70.80;;;;;;4998202;28;20434;-66
2021/09/07 08:57:16;;;;;;;10.80;9.97;;;32.70;68.80;;;;;;4998656;28;20456;-66
2021/09/07 08:59:43;;;;;;;11.13;10.20;;;32.90;66.10;;;;;;4996796;28;20937;-65
2021/09/07 09:02:14;;;;;;;10.10;9.30;;;33.30;65.20;;;;;;4996399;28;20951;-65
2021/09/07 09:04:46;;;;;;;11.63;10.53;;;33.70;63.90;;;;;;4996905;28;20967;-65
2021/09/07 09:07:26;;;;;;;10.50;9.70;;;34.30;62.70;;;;;;4997273;28;20444;-66
2021/09/07 09:09:54;;;;;;;11.40;10.13;;;34.00;63.00;;;;;;4996925;28;20441;-66
2021/09/07 09:12:29;;;;;;;10.33;9.43;;;33.80;59.00;;;;;;4997111;28;20474;-66
2021/09/07 09:14:57;;;;;;;11.17;9.57;;;33.40;59.50;;;;;;4996894;28;20442;-65
2021/09/07 09:17:28;;;;;;;10.37;9.57;;;33.40;59.40;;;;;;4996650;28;20548;-65
2021/09/07 09:19:58;;;;;;;10.93;9.87;;;33.10;65.90;;;;;;4996809;28;20477;-64
2021/09/07 09:25:35;;;;;;;10.40;9.60;;;33.00;59.60;;;;;;5094040;27;20534;-65
2021/09/07 09:28:21;;;;;;;10.33;9.53;;;33.20;60.60;;;;;;5091654;28;20453;-64
2021/09/07 09:30:54;;;;;;;10.83;9.93;;;33.60;59.10;;;;;;5091844;28;21039;-64
2021/09/07 09:33:22;;;;;;;10.53;9.70;;;33.70;59.30;;;;;;5095484;28;20431;-64
2021/09/07 09:35:58;;;;;;;12.83;10.43;;;33.90;58.40;;;;;;5091313;28;20452;-66
2021/09/07 09:38:27;;;;;;;11.37;10.30;;;34.50;58.00;;;;;;5091513;28;20436;-65
2021/09/07 09:40:58;;;;;;;10.50;9.50;;;34.40;56.90;;;;;;5091398;28;20482;-65
2021/09/07 09:43:28;;;;;;;11.93;10.83;;;34.50;58.00;;;;;;5091162;28;20962;-65
2021/09/07 09:45:55;;;;;;;10.40;9.70;;;34.50;57.50;;;;;;5091832;28;20452;-65
2021/09/07 09:48:27;;;;;;;11.17;10.27;;;34.80;58.00;;;;;;5091053;28;20461;-65
2021/09/07 09:50:57;;;;;;;10.90;10.07;;;35.20;57.20;;;;;;5090917;28;20508;-65
2021/09/07 09:53:25;;;;;;;11.23;10.40;;;35.60;55.20;;;;;;5091541;28;20467;-65
2021/09/07 09:55:54;;;;;;;10.77;9.97;;;35.20;55.50;;;;;;5093097;28;20451;-64
2021/09/07 09:58:24;;;;;;;11.60;10.60;;;34.40;53.70;;;;;;5095099;28;20457;-64
2021/09/07 10:00:52;;;;;;;11.80;10.60;;;34.90;53.90;;;;;;5094368;28;20876;-65
2021/09/07 10:03:19;;;;;;;10.60;9.47;;;35.30;55.00;;;;;;5093653;28;20456;-65
2021/09/07 10:05:47;;;;;;;12.10;11.20;;;35.90;54.80;;;;;;5091381;28;20464;-65
2021/09/07 10:08:17;;;;;;;12.30;10.30;;;36.10;53.90;;;;;;5090992;28;20474;-65
2021/09/07 10:10:51;;;;;;;10.67;9.77;;;34.80;56.00;;;;;;5091005;28;20529;-65
2021/09/07 10:13:19;;;;;;;11.37;10.30;;;35.40;55.50;;;;;;5090812;28;20446;-65
2021/09/07 10:15:52;;;;;;;12.10;11.20;;;35.40;56.80;;;;;;5090749;28;20459;-65
2021/09/07 10:18:32;;;;;;;11.80;10.90;;;35.30;55.90;;;;;;5090768;28;20928;-65
2021/09/07 10:21:05;;;;;;;11.90;9.70;;;34.80;57.80;;;;;;5090192;28;20564;-65
2021/09/07 10:23:53;;;;;;;11.93;10.37;;;35.20;55.00;;;;;;5090073;28;20480;-66
2021/09/07 10:26:53;;;;;;;12.47;11.47;;;35.50;53.60;;;;;;5090232;28;20458;-65
2021/09/07 10:29:37;;;;;;;10.53;9.70;;;35.90;53.00;;;;;;5090238;28;20482;-64
2021/09/07 10:32:30;;;;;;;10.80;9.80;;;35.50;54.50;;;;;;5089641;28;20475;-65
2021/09/07 10:35:09;;;;;;;12.50;11.27;;;35.20;53.80;;;;;;5086271;28;20476;-64
2021/09/07 10:38:11;;;;;;;10.40;9.70;;;35.20;52.80;;;;;;5076596;28;20464;-64
2021/09/07 10:40:43;;;;;;;11.97;10.83;;;34.90;54.20;;;;;;5076305;28;20831;-65
2021/09/07 10:43:10;;;;;;;11.10;10.33;;;35.20;53.60;;;;;;5076383;28;20463;-65
2021/09/07 10:45:38;;;;;;;10.63;9.83;;;35.20;56.50;;;;;;5076183;28;20484;-66
2021/09/07 10:48:31;;;;;;;10.60;9.70;;;35.10;54.20;;;;;;5076518;28;20457;-65
2021/09/07 10:50:59;;;;;;;9.93;9.17;;;35.30;52.50;;;;;;5076198;28;20555;-65
2021/09/07 10:53:26;;;;;;;9.40;8.43;;;35.50;49.70;;;;;;5076585;28;20810;-66
2021/09/07 10:55:53;;;;;;;9.33;8.53;;;35.70;52.90;;;;;;5076350;28;20470;-65
2021/09/07 10:58:33;;;;;;;9.80;9.00;;;36.00;51.50;;;;;;5076105;28;20451;-65
2021/09/07 11:01:27;;;;;;;9.07;8.37;;;36.20;48.80;;;;;;5076207;28;20511;-65
2021/09/07 11:04:32;;;;;;;9.13;8.33;;;36.00;50.50;;;;;;5076245;28;20470;-66
2021/09/07 11:07:00;;;;;;;10.87;9.97;;;35.50;52.10;;;;;;5076250;28;20457;-64
2021/09/07 11:09:57;;;;;;;10.10;9.07;;;34.80;50.80;;;;;;5076367;28;20856;-64
2021/09/07 11:12:28;;;;;;;9.87;9.07;;;34.60;52.90;;;;;;5014130;28;21008;-65
2021/09/07 11:15:08;;;;;;;9.80;8.80;;;34.30;53.20;;;;;;5063110;28;20513;-64
2021/09/07 11:17:35;;;;;;;11.67;8.90;;;34.00;52.70;;;;;;5075992;28;20442;-64
2021/09/07 11:20:06;;;;;;;8.07;7.50;;;33.60;52.40;;;;;;5075594;28;20452;-64
2021/09/07 11:22:34;;;;;;;14.03;11.50;;;33.50;55.90;;;;;;5076144;28;20524;-64
2021/09/07 11:25:06;;;;;;;9.73;8.93;;;33.30;54.10;;;;;;5075334;28;20489;-64
2021/09/07 11:27:53;;;;;;;8.43;7.63;;;33.10;54.10;;;;;;5075633;28;20436;-64
2021/09/07 11:30:31;;;;;;;9.97;9.17;;;33.00;52.80;;;;;;5075297;28;20774;-65
2021/09/07 11:32:59;;;;;;;9.10;8.40;;;32.90;53.60;;;;;;5075604;28;20439;-64
2021/09/07 11:35:29;;;;;;;9.20;8.50;;;32.40;55.10;;;;;;5075179;28;20439;-64
2021/09/07 11:37:58;;;;;;;9.57;8.60;;;32.40;52.90;;;;;;5075434;28;20457;-64
2021/09/07 11:40:24;;;;;;;9.67;8.90;;;32.30;57.50;;;;;;5075140;28;20956;-64
2021/09/07 11:42:52;;;;;;;9.40;8.70;;;32.00;53.00;;;;;;5075699;28;20442;-64
2021/09/07 11:45:20;;;;;;;9.43;8.60;;;31.70;54.10;;;;;;5075659;28;20474;-64
2021/09/07 11:47:47;;;;;;;8.03;7.53;;;31.80;56.80;;;;;;5074317;28;20966;-64
2021/09/07 11:50:18;;;;;;;9.40;8.70;;;31.70;56.50;;;;;;5075194;28;20849;-63
2021/09/07 11:52:47;;;;;;;9.27;8.37;;;31.40;54.50;;;;;;5075469;28;20458;-63
2021/09/07 11:55:37;;;;;;;9.83;9.03;;;31.30;55.90;;;;;;5075496;28;20438;-64
2021/09/07 11:58:05;;;;;;;9.30;8.50;;;31.20;56.60;;;;;;5075223;28;20446;-64
2021/09/07 12:00:31;;;;;;;9.57;8.73;;;31.10;56.10;;;;;;5075120;28;20812;-64
2021/09/07 12:03:16;;;;;;;8.70;8.10;;;30.80;54.00;;;;;;5075277;28;20820;-63
2021/09/07 12:05:54;;;;;;;8.77;7.73;;;30.70;59.10;;;;;;5079659;28;20462;-64
2021/09/07 12:08:32;;;;;;;10.20;8.57;;;30.70;56.20;;;;;;5084281;28;20458;-64
2021/09/07 12:10:58;;;;;;;9.17;8.37;;;30.60;56.40;;;;;;5079538;28;20477;-66
2021/09/07 12:13:25;;;;;;;9.30;8.60;;;30.30;56.70;;;;;;5076751;28;20457;-66
2021/09/07 12:15:54;;;;;;;9.17;8.47;;;30.30;56.20;;;;;;5076055;28;20434;-66
2021/09/07 12:18:32;;;;;;;9.30;8.60;;;30.30;57.20;;;;;;5075832;28;20454;-66
2021/09/07 12:21:24;;;;;;;8.93;8.30;;;30.30;57.60;;;;;;5075128;28;20972;-66
2021/09/07 12:23:55;;;;;;;9.80;9.00;;;30.40;56.00;;;;;;5072109;28;20461;-66
2021/09/07 12:26:39;;;;;;;9.30;8.60;;;30.50;57.80;;;;;;5075632;28;20905;-66
2021/09/07 12:29:16;;;;;;;9.63;8.73;;;30.70;58.60;;;;;;5075225;28;20794;-66
2021/09/07 12:31:44;;;;;;;10.20;9.50;;;30.80;60.80;;;;;;5074294;28;20976;-66
2021/09/07 12:34:11;;;;;;;9.77;9.00;;;30.70;58.00;;;;;;5074924;28;20457;-66
2021/09/07 12:36:45;;;;;;;10.40;9.60;;;30.50;57.10;;;;;;5074916;28;20450;-66
2021/09/07 12:39:14;;;;;;;10.07;9.30;;;30.50;58.30;;;;;;5075346;28;20452;-66
2021/09/07 12:41:43;;;;;;;10.67;9.60;;;30.40;58.60;;;;;;5076808;28;20548;-66
2021/09/07 12:44:13;;;;;;;9.60;8.90;;;30.50;59.30;;;;;;5076332;28;20466;-66
2021/09/07 12:46:40;;;;;;;8.90;8.30;;;30.60;60.70;;;;;;5077005;28;20476;-66
2021/09/07 12:49:06;;;;;;;8.67;8.07;;;30.80;58.80;;;;;;5076510;28;20454;-65
2021/09/07 12:51:33;;;;;;;8.70;7.90;;;30.80;62.60;;;;;;5077037;28;20469;-65
2021/09/07 12:54:01;;;;;;;9.67;9.00;;;30.80;61.00;;;;;;5075887;28;20450;-65
2021/09/07 12:56:32;;;;;;;9.47;8.77;;;31.00;60.40;;;;;;5075015;28;20446;-65
2021/09/07 12:59:01;;;;;;;8.77;8.10;;;31.20;61.20;;;;;;5074046;28;20434;-66
2021/09/07 13:01:29;;;;;;;9.80;8.87;;;31.30;56.20;;;;;;5074633;28;20466;-66
2021/09/07 13:03:57;;;;;;;9.50;8.80;;;31.20;57.70;;;;;;5074117;28;20442;-65
2021/09/07 13:06:25;;;;;;;8.73;7.93;;;31.20;59.20;;;;;;5074306;28;20445;-64
2021/09/07 13:08:52;;;;;;;9.00;8.30;;;31.10;58.60;;;;;;5074319;28;20951;-65
2021/09/07 13:11:21;;;;;;;9.10;8.40;;;30.70;59.70;;;;;;5074224;28;20474;-66
2021/09/07 13:13:49;;;;;;;9.57;8.77;;;30.60;56.00;;;;;;5074580;28;20450;-66
2021/09/07 13:16:16;;;;;;;9.40;8.70;;;30.70;56.40;;;;;;5074095;28;20450;-66
2021/09/07 13:18:47;;;;;;;10.13;9.23;;;30.70;57.20;;;;;;5073812;28;20869;-66
2021/09/07 13:21:14;;;;;;;8.37;7.60;;;30.60;58.30;;;;;;5073613;28;20565;-66
2021/09/07 13:23:41;;;;;;;8.80;8.10;;;30.40;57.30;;;;;;5073612;28;20481;-66
2021/09/07 13:26:09;;;;;;;10.03;9.13;;;30.50;58.50;;;;;;5073408;28;20832;-66
2021/09/07 13:28:35;;;;;;;8.50;7.80;;;30.60;58.40;;;;;;5073797;28;20854;-66
2021/09/07 13:31:04;;;;;;;8.33;7.70;;;30.60;57.10;;;;;;5073421;28;21004;-66
2021/09/07 13:33:30;;;;;;;9.63;8.83;;;30.70;58.30;;;;;;5074718;28;20457;-66
2021/09/07 13:35:57;;;;;;;8.20;7.63;;;31.00;60.60;;;;;;5074006;28;20446;-66
2021/09/07 13:38:24;;;;;;;9.53;8.83;;;30.90;58.60;;;;;;5073881;28;20454;-66
2021/09/07 13:40:50;;;;;;;10.07;9.17;;;30.90;57.70;;;;;;5073755;28;20477;-66
2021/09/07 13:43:17;;;;;;;9.17;8.33;;;31.00;59.30;;;;;;5073936;28;20477;-66
2021/09/07 13:45:44;;;;;;;9.53;8.73;;;31.10;59.40;;;;;;5074214;28;20478;-66
2021/09/07 13:48:12;;;;;;;9.60;8.93;;;30.90;57.10;;;;;;5074124;28;20450;-66
2021/09/07 13:50:39;;;;;;;10.20;9.20;;;30.60;56.60;;;;;;5074846;28;20578;-66
2021/09/07 13:53:06;;;;;;;10.20;9.20;;;30.40;57.00;;;;;;5074705;28;20481;-64
2021/09/07 13:55:32;;;;;;;8.87;8.17;;;30.00;57.60;;;;;;5074622;28;20453;-66
2021/09/07 13:57:59;;;;;;;9.53;8.63;;;29.70;58.50;;;;;;5075883;28;20454;-66
2021/09/07 14:00:26;;;;;;;8.60;7.97;;;29.70;60.10;;;;;;5074873;28;20458;-64
2021/09/07 14:02:53;;;;;;;16.57;8.43;;;29.80;64.60;;;;;;5074357;28;20438;-65
2021/09/07 14:05:21;;;;;;;11.13;8.67;;;29.80;62.90;;;;;;5073770;28;20485;-66
2021/09/07 14:07:48;;;;;;;13.57;8.13;;;29.80;64.40;;;;;;5073518;28;20457;-65
2021/09/07 14:10:14;;;;;;;9.90;9.00;;;29.80;61.20;;;;;;5074120;28;20457;-66
2021/09/07 14:12:42;;;;;;;9.03;8.37;;;29.80;62.20;;;;;;5077264;28;20457;-66
2021/09/07 14:15:10;;;;;;;9.07;8.33;;;29.60;65.80;;;;;;5077465;28;20457;-66
2021/09/07 14:17:37;;;;;;;9.10;8.50;;;29.70;64.00;;;;;;5077341;28;20450;-66
2021/09/07 14:20:05;;;;;;;9.20;8.40;;;29.60;59.00;;;;;;5077993;28;20785;-65
2021/09/07 14:22:33;;;;;;;9.20;8.33;;;29.60;60.30;;;;;;5077628;28;20476;-65
2021/09/07 14:25:00;;;;;;;9.63;8.77;;;29.40;66.10;;;;;;5077773;28;20529;-65
2021/09/07 14:27:29;;;;;;;9.83;9.03;;;29.40;65.70;;;;;;5078661;28;20434;-65
2021/09/07 14:29:56;;;;;;;9.07;8.33;;;29.40;64.50;;;;;;5077494;28;20515;-66
2021/09/07 14:32:23;;;;;;;8.83;8.13;;;29.30;63.40;;;;;;5078006;28;20478;-66
2021/09/07 14:34:49;;;;;;;9.27;8.57;;;29.30;60.60;;;;;;5076919;28;20450;-66
2021/09/07 14:37:16;;;;;;;10.53;8.20;;;29.10;61.20;;;;;;5076863;28;20477;-65
2021/09/07 14:39:44;;;;;;;9.80;9.10;;;29.00;60.00;;;;;;5076556;28;20453;-65
2021/09/07 14:42:11;;;;;;;9.60;8.90;;;28.90;62.00;;;;;;5076488;28;20816;-66
2021/09/07 14:44:38;;;;;;;9.20;8.50;;;28.90;63.00;;;;;;5076448;28;20454;-65
2021/09/07 14:47:05;;;;;;;9.43;8.83;;;29.10;68.20;;;;;;5076487;28;20803;-65
2021/09/07 14:49:31;;;;;;;9.63;8.77;;;29.30;65.40;;;;;;5076535;28;20454;-65
2021/09/07 14:51:58;;;;;;;9.13;8.33;;;29.40;66.80;;;;;;5076238;28;20473;-66
2021/09/07 14:54:25;;;;;;;9.27;8.57;;;29.70;64.80;;;;;;5076652;28;20476;-66
2021/09/07 14:56:53;;;;;;;9.87;9.00;;;29.80;62.90;;;;;;5076760;28;20457;-66
2021/09/07 14:59:19;;;;;;;10.53;9.70;;;29.70;61.60;;;;;;5076096;28;20843;-65
2021/09/07 15:01:46;;;;;;;8.60;7.90;;;29.80;64.10;;;;;;5078774;28;20469;-68
2021/09/07 15:04:14;;;;;;;9.90;9.13;;;29.70;62.30;;;;;;5076242;28;20461;-68
2021/09/07 15:06:41;;;;;;;8.60;7.90;;;29.90;63.40;;;;;;5076387;28;20481;-68
2021/09/07 15:09:07;;;;;;;10.97;8.40;;;29.70;63.30;;;;;;5075700;28;20956;-67
2021/09/07 15:11:35;;;;;;;9.03;8.10;;;29.70;62.40;;;;;;5076218;28;20470;-68
2021/09/07 15:14:04;;;;;;;9.53;8.73;;;29.40;63.60;;;;;;5075766;28;21066;-68
2021/09/07 15:16:31;;;;;;;10.90;9.10;;;29.20;65.60;;;;;;5075603;28;20537;-65
2021/09/07 15:18:58;;;;;;;9.37;8.67;;;29.10;66.10;;;;;;5075821;28;20964;-66
2021/09/07 15:21:24;;;;;;;8.80;8.10;;;29.10;66.60;;;;;;5075763;28;20477;-68
2021/09/07 15:23:51;;;;;;;8.90;8.20;;;29.10;72.10;;;;;;5075693;28;20470;-68
2021/09/07 15:26:18;;;;;;;9.43;8.63;;;29.20;71.00;;;;;;5075726;28;20474;-69
2021/09/07 15:28:46;;;;;;;8.67;8.07;;;29.20;68.50;;;;;;5076512;28;20541;-67
2021/09/07 15:31:14;;;;;;;9.10;8.40;;;29.10;67.10;;;;;;5078790;28;20481;-66
2021/09/07 15:33:41;;;;;;;10.23;8.67;;;29.20;64.00;;;;;;5079094;28;20450;-68
2021/09/07 15:36:08;;;;;;;8.60;8.00;;;29.20;63.10;;;;;;5075724;28;20937;-68
2021/09/07 15:38:34;;;;;;;9.07;8.27;;;29.10;65.50;;;;;;5075647;28;20450;-68
2021/09/07 15:41:01;;;;;;;9.80;8.87;;;29.00;65.50;;;;;;5076135;28;20475;-67
2021/09/07 15:43:28;;;;;;;10.87;9.83;;;28.60;64.50;;;;;;5075778;28;20438;-69
2021/09/07 15:45:55;;;;;;;9.90;8.67;;;28.50;67.80;;;;;;5075740;28;20996;-67
2021/09/07 15:48:23;;;;;;;9.87;9.17;;;28.40;66.40;;;;;;5075377;28;20454;-67
2021/09/07 15:50:50;;;;;;;9.90;9.10;;;28.40;65.40;;;;;;5075150;28;20481;-66
2021/09/07 15:53:16;;;;;;;9.93;9.10;;;28.20;63.70;;;;;;5075147;28;20461;-66
2021/09/07 15:55:43;;;;;;;8.83;8.13;;;28.10;64.30;;;;;;5075049;28;20457;-66
2021/09/07 15:58:10;;;;;;;9.20;8.50;;;28.10;68.10;;;;;;5075080;28;20480;-66
2021/09/07 16:00:37;;;;;;;10.33;9.43;;;28.00;65.30;;;;;;5074954;28;20509;-66
2021/09/07 16:03:04;;;;;;;10.37;9.47;;;27.90;67.80;;;;;;5074542;28;20450;-66
2021/09/07 16:05:32;;;;;;;9.63;8.90;;;27.90;71.30;;;;;;5075267;28;20470;-66
2021/09/07 16:07:59;;;;;;;9.90;9.20;;;27.80;69.10;;;;;;5074313;28;20940;-66
2021/09/07 16:10:26;;;;;;;9.67;8.70;;;27.80;72.00;;;;;;5074590;28;20787;-65
2021/09/07 16:12:53;;;;;;;13.43;8.63;;;27.70;67.70;;;;;;5074443;28;20811;-66
2021/09/07 16:15:19;;;;;;;9.40;8.60;;;27.70;71.90;;;;;;5074879;28;20507;-66
2021/09/07 16:17:48;;;;;;;10.20;8.40;;;27.60;72.20;;;;;;5074872;28;20491;-66
2021/09/07 16:20:15;;;;;;;8.37;7.77;;;27.60;72.70;;;;;;5074720;28;20439;-66
2021/09/07 16:22:43;;;;;;;8.57;7.87;;;27.40;70.50;;;;;;5074453;28;20481;-66
2021/09/07 16:25:11;;;;;;;8.37;7.77;;;27.40;70.80;;;;;;5074405;28;20462;-66
2021/09/07 16:27:37;;;;;;;9.67;8.57;;;27.30;71.00;;;;;;5074898;28;20454;-66
2021/09/07 16:30:05;;;;;;;8.70;7.93;;;27.20;71.00;;;;;;5074582;28;20446;-66
2021/09/07 16:32:32;;;;;;;9.23;8.40;;;27.10;72.10;;;;;;5074113;28;20474;-66
2021/09/07 16:34:59;;;;;;;11.10;9.50;;;27.10;75.40;;;;;;5074257;28;20457;-66
2021/09/07 16:37:26;;;;;;;10.83;8.60;;;27.00;74.00;;;;;;5074418;28;20458;-66
2021/09/07 16:39:54;;;;;;;9.50;8.70;;;27.00;78.20;;;;;;5074121;28;20449;-66
2021/09/07 16:42:20;;;;;;;10.30;9.30;;;26.90;78.20;;;;;;5074399;28;20839;-66
2021/09/07 16:44:47;;;;;;;13.13;8.67;;;26.70;79.80;;;;;;5074929;28;20454;-66
2021/09/07 16:47:14;;;;;;;9.73;8.93;;;26.60;78.60;;;;;;5074834;28;20484;-68